createdAt,value
2024-03-20T00:00:04.526Z,0
2024-03-20T00:01:04.481Z,0
2024-03-20T00:02:04.469Z,0
2024-03-20T00:03:04.458Z,0
2024-03-20T00:04:04.458Z,0
2024-03-20T00:05:04.460Z,0
2024-03-20T00:06:04.457Z,0
2024-03-20T00:07:04.452Z,0
2024-03-20T00:08:04.469Z,0
2024-03-20T00:09:04.457Z,0
2024-03-20T00:10:04.483Z,0
2024-03-20T00:11:04.469Z,0
2024-03-20T00:12:04.445Z,0
2024-03-20T00:13:04.458Z,0
2024-03-20T00:14:04.466Z,0
2024-03-20T00:15:04.462Z,0
2024-03-20T00:16:04.475Z,0
2024-03-20T00:17:04.459Z,0
2024-03-20T00:18:04.462Z,0
2024-03-20T00:19:04.456Z,0
2024-03-20T00:20:04.454Z,0
2024-03-20T00:21:04.467Z,0
2024-03-20T00:22:04.460Z,0
2024-03-20T00:23:04.480Z,0
2024-03-20T00:24:04.454Z,0
2024-03-20T00:25:04.473Z,0
2024-03-20T00:26:04.467Z,0
2024-03-20T00:27:04.453Z,0
2024-03-20T00:28:04.458Z,0
2024-03-20T00:29:04.459Z,0
2024-03-20T00:30:04.456Z,0
2024-03-20T00:31:04.455Z,0
2024-03-20T00:32:04.457Z,0
2024-03-20T00:33:04.459Z,0
2024-03-20T00:34:04.463Z,0
2024-03-20T00:35:04.444Z,0
2024-03-20T00:36:04.465Z,0
2024-03-20T00:37:04.456Z,0
2024-03-20T00:38:04.500Z,0
2024-03-20T00:39:04.456Z,0
2024-03-20T00:40:04.453Z,0
2024-03-20T00:41:04.471Z,0
2024-03-20T00:42:04.453Z,0
2024-03-20T00:43:04.462Z,0
2024-03-20T00:44:04.457Z,0
2024-03-20T00:45:04.454Z,0
2024-03-20T00:46:04.457Z,0
2024-03-20T00:47:04.455Z,0
2024-03-20T00:48:04.450Z,0
2024-03-20T00:49:04.478Z,0
2024-03-20T00:50:04.462Z,0
2024-03-20T00:51:04.478Z,0
2024-03-20T00:52:04.459Z,0
2024-03-20T00:53:04.478Z,0
2024-03-20T00:54:04.459Z,0
2024-03-20T00:55:04.457Z,0
2024-03-20T00:56:04.469Z,0
2024-03-20T00:57:04.457Z,0
2024-03-20T00:58:04.459Z,0
2024-03-20T00:59:04.483Z,0
2024-03-20T01:00:04.471Z,0
2024-03-20T01:01:04.466Z,0
2024-03-20T01:02:04.464Z,0
2024-03-20T01:03:04.465Z,0
2024-03-20T01:04:04.448Z,0
2024-03-20T01:05:04.466Z,0
2024-03-20T01:06:04.465Z,0
2024-03-20T01:07:04.475Z,0
2024-03-20T01:08:04.461Z,0
2024-03-20T01:09:04.450Z,0
2024-03-20T01:10:04.446Z,0
2024-03-20T01:11:04.451Z,0
2024-03-20T01:12:04.461Z,0
2024-03-20T01:13:04.451Z,0
2024-03-20T01:14:04.455Z,0
2024-03-20T01:15:04.451Z,0
2024-03-20T01:16:04.458Z,0
2024-03-20T01:17:04.454Z,0
2024-03-20T01:18:04.461Z,0
2024-03-20T01:19:04.457Z,0
2024-03-20T01:20:04.465Z,0
2024-03-20T01:21:04.464Z,0
2024-03-20T01:22:04.461Z,0
2024-03-20T01:23:04.482Z,0
2024-03-20T01:24:04.463Z,0
2024-03-20T01:25:04.459Z,0
2024-03-20T01:26:04.477Z,0
2024-03-20T01:27:04.460Z,0
2024-03-20T01:28:04.458Z,0
2024-03-20T01:29:04.460Z,0
2024-03-20T01:30:04.465Z,0
2024-03-20T01:31:04.469Z,0
2024-03-20T01:32:04.458Z,0
2024-03-20T01:33:04.484Z,0
2024-03-20T01:34:04.458Z,0
2024-03-20T01:35:04.458Z,0
2024-03-20T01:36:04.472Z,0
2024-03-20T01:37:04.463Z,0
2024-03-20T01:38:04.496Z,0
2024-03-20T01:39:04.471Z,0
2024-03-20T01:40:04.456Z,0
2024-03-20T01:41:04.469Z,0
2024-03-20T01:42:04.456Z,0
2024-03-20T01:43:04.463Z,0
2024-03-20T01:44:04.454Z,0
2024-03-20T01:45:04.453Z,0
2024-03-20T01:46:04.455Z,0
2024-03-20T01:47:04.456Z,0
2024-03-20T01:48:04.452Z,0
2024-03-20T01:49:04.453Z,0
2024-03-20T01:50:04.551Z,0
2024-03-20T01:51:04.467Z,0
2024-03-20T01:52:04.463Z,0
2024-03-20T01:53:04.467Z,0
2024-03-20T01:54:04.447Z,0
2024-03-20T01:55:04.466Z,0
2024-03-20T01:56:04.462Z,0
2024-03-20T01:57:04.460Z,0
2024-03-20T01:58:04.452Z,0
2024-03-20T01:59:04.458Z,0
2024-03-20T02:00:04.454Z,0
2024-03-20T02:01:04.462Z,0
2024-03-20T02:02:04.458Z,0
2024-03-20T02:03:04.453Z,0
2024-03-20T02:04:04.460Z,0
2024-03-20T02:05:04.458Z,0
2024-03-20T02:06:04.477Z,0
2024-03-20T02:07:04.466Z,0
2024-03-20T02:08:04.468Z,0
2024-03-20T02:09:04.470Z,0
2024-03-20T02:10:04.464Z,0
2024-03-20T02:11:04.464Z,0
2024-03-20T02:12:04.452Z,0
2024-03-20T02:13:04.488Z,0
2024-03-20T02:14:04.458Z,0
2024-03-20T02:15:04.461Z,0
2024-03-20T02:16:04.466Z,0
2024-03-20T02:17:04.466Z,0
2024-03-20T02:18:04.463Z,0
2024-03-20T02:19:04.452Z,0
2024-03-20T02:20:04.470Z,0
2024-03-20T02:21:04.468Z,0
2024-03-20T02:22:04.464Z,0
2024-03-20T02:23:04.477Z,0
2024-03-20T02:24:04.454Z,0
2024-03-20T02:25:04.455Z,0
2024-03-20T02:26:04.458Z,0
2024-03-20T02:27:04.457Z,0
2024-03-20T02:28:04.458Z,0
2024-03-20T02:29:04.460Z,0
2024-03-20T02:30:04.459Z,0
2024-03-20T02:31:04.461Z,0
2024-03-20T02:32:04.462Z,0
2024-03-20T02:33:04.459Z,0
2024-03-20T02:34:04.463Z,0
2024-03-20T02:35:04.452Z,0
2024-03-20T02:36:04.468Z,0
2024-03-20T02:37:04.466Z,0
2024-03-20T02:38:04.480Z,0
2024-03-20T02:39:04.446Z,0
2024-03-20T02:40:04.459Z,0
2024-03-20T02:41:04.465Z,0
2024-03-20T02:42:04.464Z,0
2024-03-20T02:43:04.456Z,0
2024-03-20T02:44:04.461Z,0
2024-03-20T02:45:04.467Z,0
2024-03-20T02:46:04.465Z,0
2024-03-20T02:47:04.476Z,0
2024-03-20T02:48:04.456Z,0
2024-03-20T02:49:04.453Z,0
2024-03-20T02:50:04.453Z,0
2024-03-20T02:51:04.465Z,0
2024-03-20T02:52:04.465Z,0
2024-03-20T02:53:04.467Z,0
2024-03-20T02:54:04.456Z,0
2024-03-20T02:55:04.450Z,0
2024-03-20T02:56:04.462Z,0
2024-03-20T02:57:04.463Z,0
2024-03-20T02:58:04.457Z,0
2024-03-20T02:59:04.451Z,0
2024-03-20T03:00:04.463Z,0
2024-03-20T03:01:04.468Z,0
2024-03-20T03:02:04.459Z,0
2024-03-20T03:03:04.457Z,0
2024-03-20T03:04:04.466Z,0
2024-03-20T03:05:04.466Z,0
2024-03-20T03:06:04.462Z,0
2024-03-20T03:07:04.469Z,0
2024-03-20T03:08:04.470Z,0
2024-03-20T03:09:04.478Z,0
2024-03-20T03:10:04.457Z,0
2024-03-20T03:11:04.460Z,0
2024-03-20T03:12:04.469Z,0
2024-03-20T03:13:04.450Z,0
2024-03-20T03:14:04.462Z,0
2024-03-20T03:15:07.879Z,0
2024-03-20T03:16:04.464Z,0
2024-03-20T03:17:04.459Z,0
2024-03-20T03:18:04.460Z,0
2024-03-20T03:19:04.461Z,0
2024-03-20T03:20:04.485Z,0
2024-03-20T03:21:04.448Z,0
2024-03-20T03:22:04.458Z,0
2024-03-20T03:23:04.461Z,0
2024-03-20T03:24:04.460Z,0
2024-03-20T03:25:04.467Z,0
2024-03-20T03:26:04.451Z,0
2024-03-20T03:27:04.457Z,0
2024-03-20T03:28:04.444Z,0
2024-03-20T03:29:04.466Z,0
2024-03-20T03:30:04.464Z,0
2024-03-20T03:31:04.445Z,0
2024-03-20T03:32:04.461Z,0
2024-03-20T03:33:04.450Z,0
2024-03-20T03:34:04.462Z,0
2024-03-20T03:35:04.483Z,0
2024-03-20T03:36:04.466Z,0
2024-03-20T03:37:04.482Z,0
2024-03-20T03:38:04.486Z,0
2024-03-20T03:39:04.461Z,0
2024-03-20T03:40:04.476Z,0
2024-03-20T03:41:04.457Z,0
2024-03-20T03:42:04.461Z,0
2024-03-20T03:43:04.462Z,0
2024-03-20T03:44:04.450Z,0
2024-03-20T03:45:04.465Z,0
2024-03-20T03:46:04.466Z,0
2024-03-20T03:47:04.461Z,0
2024-03-20T03:48:04.466Z,0
2024-03-20T03:49:04.464Z,0
2024-03-20T03:50:04.469Z,0
2024-03-20T03:51:04.471Z,0
2024-03-20T03:52:04.461Z,0
2024-03-20T03:53:04.476Z,0
2024-03-20T03:54:04.454Z,0
2024-03-20T03:55:04.476Z,0
2024-03-20T03:56:04.453Z,0
2024-03-20T03:57:04.466Z,0
2024-03-20T03:58:04.482Z,0
2024-03-20T03:59:04.466Z,0
2024-03-20T04:00:04.474Z,0
2024-03-20T04:01:04.484Z,0
2024-03-20T04:02:04.463Z,0
2024-03-20T04:03:04.456Z,0
2024-03-20T04:04:04.475Z,0
2024-03-20T04:05:04.478Z,0
2024-03-20T04:06:04.455Z,0
2024-03-20T04:07:04.463Z,0
2024-03-20T04:08:04.473Z,0
2024-03-20T04:09:04.463Z,0
2024-03-20T04:10:04.474Z,0
2024-03-20T04:11:04.461Z,0
2024-03-20T04:12:04.444Z,0
2024-03-20T04:13:04.459Z,0
2024-03-20T04:14:04.456Z,0
2024-03-20T04:15:04.463Z,0
2024-03-20T04:16:04.458Z,0
2024-03-20T04:17:04.454Z,0
2024-03-20T04:18:04.456Z,0
2024-03-20T04:19:04.461Z,0
2024-03-20T04:20:04.468Z,0
2024-03-20T04:21:04.460Z,0
2024-03-20T04:22:04.458Z,0
2024-03-20T04:23:04.465Z,0
2024-03-20T04:24:04.471Z,0
2024-03-20T04:25:04.470Z,0
2024-03-20T04:26:04.459Z,0
2024-03-20T04:27:04.458Z,0
2024-03-20T04:28:04.466Z,0
2024-03-20T04:29:04.474Z,0
2024-03-20T04:30:04.464Z,0
2024-03-20T04:31:04.451Z,0
2024-03-20T04:32:04.459Z,0
2024-03-20T04:33:04.447Z,0
2024-03-20T04:34:04.476Z,0
2024-03-20T04:35:04.466Z,0
2024-03-20T04:36:04.467Z,0
2024-03-20T04:37:04.465Z,1
2024-03-20T04:38:04.486Z,1
2024-03-20T04:39:04.462Z,1
2024-03-20T04:40:04.474Z,3
2024-03-20T04:41:04.456Z,5
2024-03-20T04:42:04.461Z,5
2024-03-20T04:43:04.458Z,7
2024-03-20T04:44:04.464Z,9
2024-03-20T04:45:06.596Z,11
2024-03-20T04:46:04.475Z,12
2024-03-20T04:47:04.463Z,16
2024-03-20T04:48:04.458Z,20
2024-03-20T04:49:04.463Z,23
2024-03-20T04:50:04.461Z,27
2024-03-20T04:51:04.453Z,33
2024-03-20T04:52:04.469Z,38
2024-03-20T04:53:04.476Z,44
2024-03-20T04:54:04.462Z,51
2024-03-20T04:55:04.472Z,58
2024-03-20T04:56:04.464Z,68
2024-03-20T04:57:04.467Z,77
2024-03-20T04:58:04.466Z,86
2024-03-20T04:59:04.458Z,99
2024-03-20T05:00:04.454Z,112
2024-03-20T05:01:04.453Z,125
2024-03-20T05:02:04.446Z,141
2024-03-20T05:03:04.464Z,158
2024-03-20T05:04:04.510Z,175
2024-03-20T05:05:04.503Z,193
2024-03-20T05:06:04.472Z,211
2024-03-20T05:07:04.469Z,230
2024-03-20T05:08:04.475Z,250
2024-03-20T05:09:04.466Z,270
2024-03-20T05:10:04.456Z,293
2024-03-20T05:11:04.471Z,317
2024-03-20T05:12:04.475Z,340
2024-03-20T05:13:04.461Z,363
2024-03-20T05:14:04.462Z,385
2024-03-20T05:15:04.470Z,385
2024-03-20T05:16:04.460Z,431
2024-03-20T05:17:04.472Z,455
2024-03-20T05:18:04.460Z,479
2024-03-20T05:19:04.458Z,505
2024-03-20T05:20:04.450Z,532
2024-03-20T05:21:04.462Z,558
2024-03-20T05:22:04.458Z,586
2024-03-20T05:23:04.463Z,615
2024-03-20T05:24:04.457Z,646
2024-03-20T05:25:04.463Z,680
2024-03-20T05:26:04.454Z,715
2024-03-20T05:27:04.470Z,755
2024-03-20T05:28:04.466Z,796
2024-03-20T05:29:04.464Z,834
2024-03-20T05:30:04.464Z,877
2024-03-20T05:31:04.479Z,914
2024-03-20T05:32:04.471Z,945
2024-03-20T05:33:04.467Z,969
2024-03-20T05:34:04.454Z,1000
2024-03-20T05:35:04.473Z,1039
2024-03-20T05:36:04.468Z,1081
2024-03-20T05:37:04.466Z,1131
2024-03-20T05:38:04.485Z,1212
2024-03-20T05:39:04.457Z,1279
2024-03-20T05:40:04.460Z,1336
2024-03-20T05:41:04.466Z,1362
2024-03-20T05:42:04.457Z,1354
2024-03-20T05:43:04.447Z,1424
2024-03-20T05:44:04.466Z,1476
2024-03-20T05:45:04.454Z,1496
2024-03-20T05:46:04.470Z,1524
2024-03-20T05:47:04.460Z,1522
2024-03-20T05:48:04.450Z,1564
2024-03-20T05:49:04.461Z,1577
2024-03-20T05:50:04.464Z,1579
2024-03-20T05:51:04.464Z,1629
2024-03-20T05:52:06.001Z,1679
2024-03-20T05:53:04.475Z,1743
2024-03-20T05:54:04.471Z,1817
2024-03-20T05:55:04.482Z,1859
2024-03-20T05:56:04.442Z,1894
2024-03-20T05:57:04.476Z,1940
2024-03-20T05:58:04.461Z,1985
2024-03-20T05:59:04.449Z,2018
2024-03-20T06:00:04.474Z,2058
2024-03-20T06:01:04.484Z,2110
2024-03-20T06:02:04.469Z,2195
2024-03-20T06:03:04.476Z,2243
2024-03-20T06:04:04.486Z,2449
2024-03-20T06:05:04.453Z,2884
2024-03-20T06:06:04.447Z,3153
2024-03-20T06:07:04.464Z,3273
2024-03-20T06:08:04.470Z,3428
2024-03-20T06:10:04.527Z,3608
2024-03-20T06:11:04.485Z,3686
2024-03-20T06:12:04.460Z,3785
2024-03-20T06:13:04.458Z,3763
2024-03-20T06:14:04.462Z,3769
2024-03-20T06:15:04.453Z,3769
2024-03-20T06:16:04.456Z,3870
2024-03-20T06:17:06.822Z,4187
2024-03-20T06:18:04.462Z,4381
2024-03-20T06:19:04.462Z,4584
2024-03-20T06:20:04.440Z,4508
2024-03-20T06:21:04.457Z,4626
2024-03-20T06:22:04.470Z,4858
2024-03-20T06:23:04.472Z,4451
2024-03-20T06:24:04.465Z,4683
2024-03-20T06:25:04.455Z,5160
2024-03-20T06:26:04.456Z,5420
2024-03-20T06:27:04.464Z,5435
2024-03-20T06:28:04.464Z,5498
2024-03-20T06:29:04.475Z,5378
2024-03-20T06:30:04.459Z,5400
2024-03-20T06:31:04.465Z,5509
2024-03-20T06:32:04.453Z,6008
2024-03-20T06:33:04.467Z,5938
2024-03-20T06:34:04.475Z,5780
2024-03-20T06:35:04.467Z,5824
2024-03-20T06:36:04.460Z,5907
2024-03-20T06:37:04.459Z,5964
2024-03-20T06:38:04.480Z,6058
2024-03-20T06:39:04.464Z,6209
2024-03-20T06:40:04.576Z,6086
2024-03-20T06:41:04.461Z,6182
2024-03-20T06:42:04.463Z,6270
2024-03-20T06:43:04.476Z,6366
2024-03-20T06:44:04.462Z,6331
2024-03-20T06:45:04.456Z,6716
2024-03-20T06:46:04.456Z,6657
2024-03-20T06:47:04.456Z,6801
2024-03-20T06:48:04.451Z,6648
2024-03-20T06:49:04.455Z,6676
2024-03-20T06:50:04.454Z,6819
2024-03-20T06:51:04.474Z,6806
2024-03-20T06:52:04.461Z,6786
2024-03-20T06:53:04.460Z,7006
2024-03-20T06:54:04.468Z,7170
2024-03-20T06:55:04.456Z,7514
2024-03-20T06:56:04.455Z,7380
2024-03-20T06:57:04.458Z,7544
2024-03-20T06:58:04.464Z,7739
2024-03-20T06:59:04.454Z,8019
2024-03-20T07:00:04.446Z,8104
2024-03-20T07:01:04.455Z,8351
2024-03-20T07:02:04.556Z,8910
2024-03-20T07:03:04.467Z,8111
2024-03-20T07:04:04.460Z,8511
2024-03-20T07:05:04.465Z,8806
2024-03-20T07:06:04.457Z,8882
2024-03-20T07:07:04.471Z,8786
2024-03-20T07:08:04.473Z,9020
2024-03-20T07:09:04.461Z,9000
2024-03-20T07:10:04.460Z,9037
2024-03-20T07:11:04.460Z,9328
2024-03-20T07:12:04.459Z,9470
2024-03-20T07:13:04.480Z,9462
2024-03-20T07:14:04.457Z,9404
2024-03-20T07:15:04.451Z,9404
2024-03-20T07:16:04.463Z,9647
2024-03-20T07:17:04.463Z,9700
2024-03-20T07:18:04.455Z,9798
2024-03-20T07:19:04.460Z,9802
2024-03-20T07:20:04.453Z,9752
2024-03-20T07:21:04.452Z,9792
2024-03-20T07:22:04.466Z,9837
2024-03-20T07:23:04.481Z,9866
2024-03-20T07:24:04.461Z,10014
2024-03-20T07:25:04.458Z,10150
2024-03-20T07:26:04.469Z,10104
2024-03-20T07:27:04.463Z,10334
2024-03-20T07:28:04.447Z,10596
2024-03-20T07:29:04.457Z,10375
2024-03-20T07:30:04.461Z,9700
2024-03-20T07:31:04.462Z,9717
2024-03-20T07:32:04.468Z,9857
2024-03-20T07:33:04.455Z,10340
2024-03-20T07:34:04.449Z,10419
2024-03-20T07:35:04.455Z,10708
2024-03-20T07:36:04.490Z,10797
2024-03-20T07:37:04.466Z,10756
2024-03-20T07:38:04.586Z,10998
2024-03-20T07:39:04.441Z,11278
2024-03-20T07:40:04.448Z,11302
2024-03-20T07:41:04.490Z,11223
2024-03-20T07:42:04.453Z,11221
2024-03-20T07:43:04.455Z,12646
2024-03-20T07:44:04.503Z,10797
2024-03-20T07:45:04.459Z,11660
2024-03-20T07:46:04.454Z,11735
2024-03-20T07:47:04.451Z,11164
2024-03-20T07:48:04.499Z,11555
2024-03-20T07:49:04.452Z,11606
2024-03-20T07:50:04.486Z,11757
2024-03-20T07:51:04.465Z,11459
2024-03-20T07:52:04.460Z,10740
2024-03-20T07:53:04.470Z,11402
2024-03-20T07:54:04.449Z,10861
2024-03-20T07:55:04.460Z,11182
2024-03-20T07:56:04.498Z,12222
2024-03-20T07:57:04.456Z,12498
2024-03-20T07:58:05.857Z,12902
2024-03-20T07:59:04.451Z,12507
2024-03-20T08:00:04.522Z,12684
2024-03-20T08:01:04.453Z,12537
2024-03-20T08:02:04.470Z,12566
2024-03-20T08:03:04.491Z,13866
2024-03-20T08:04:04.455Z,13193
2024-03-20T08:05:04.498Z,13099
2024-03-20T08:06:04.460Z,15093
2024-03-20T08:07:04.527Z,13247
2024-03-20T08:08:04.473Z,13320
2024-03-20T08:09:04.457Z,13494
2024-03-20T08:10:04.448Z,13540
2024-03-20T08:11:04.460Z,13348
2024-03-20T08:12:04.470Z,13083
2024-03-20T08:13:04.454Z,12603
2024-03-20T08:14:04.536Z,12565
2024-03-20T08:15:04.459Z,12565
2024-03-20T08:16:04.455Z,12889
2024-03-20T08:17:04.445Z,12906
2024-03-20T08:18:04.468Z,13044
2024-03-20T08:19:04.524Z,13424
2024-03-20T08:20:04.452Z,13424
2024-03-20T08:21:04.499Z,13221
2024-03-20T08:22:04.465Z,13204
2024-03-20T08:23:04.478Z,13245
2024-03-20T08:24:04.554Z,13685
2024-03-20T08:25:04.558Z,14118
2024-03-20T08:26:04.458Z,14227
2024-03-20T08:27:04.472Z,14321
2024-03-20T08:28:04.498Z,14308
2024-03-20T08:29:04.464Z,14421
2024-03-20T08:30:04.502Z,14212
2024-03-20T08:31:04.463Z,14308
2024-03-20T08:32:04.457Z,14380
2024-03-20T08:33:04.470Z,14601
2024-03-20T08:34:04.465Z,14913
2024-03-20T08:35:04.448Z,14979
2024-03-20T08:36:04.454Z,14968
2024-03-20T08:37:04.455Z,14734
2024-03-20T08:38:04.499Z,14590
2024-03-20T08:39:04.462Z,14688
2024-03-20T08:40:04.466Z,14494
2024-03-20T08:41:04.452Z,14448
2024-03-20T08:42:05.357Z,14705
2024-03-20T08:43:10.785Z,14623
2024-03-20T08:44:04.461Z,14894
2024-03-20T08:45:04.457Z,14878
2024-03-20T08:46:04.462Z,14247
2024-03-20T08:47:04.552Z,15070
2024-03-20T08:48:04.456Z,15180
2024-03-20T08:49:04.464Z,16212
2024-03-20T08:50:04.472Z,14806
2024-03-20T08:51:04.542Z,15434
2024-03-20T08:52:04.472Z,14942
2024-03-20T08:53:04.484Z,15178
2024-03-20T08:54:04.454Z,15206
2024-03-20T08:55:04.462Z,15532
2024-03-20T08:56:04.464Z,15446
2024-03-20T08:57:04.496Z,15593
2024-03-20T08:58:04.477Z,15158
2024-03-20T08:59:04.449Z,14706
2024-03-20T09:00:04.465Z,14843
2024-03-20T09:01:04.519Z,15191
2024-03-20T09:02:04.472Z,15171
2024-03-20T09:03:04.458Z,15199
2024-03-20T09:04:04.454Z,15123
2024-03-20T09:05:04.468Z,15372
2024-03-20T09:06:04.517Z,15505
2024-03-20T09:07:04.488Z,15438
2024-03-20T09:08:04.500Z,15152
2024-03-20T09:09:04.461Z,15446
2024-03-20T09:10:04.476Z,15398
2024-03-20T09:11:04.539Z,15545
2024-03-20T09:12:04.457Z,15374
2024-03-20T09:13:04.461Z,15274
2024-03-20T09:14:04.462Z,16153
2024-03-20T09:15:04.739Z,16153
2024-03-20T09:16:04.465Z,16234
2024-03-20T09:17:04.456Z,16087
2024-03-20T09:18:04.457Z,16057
2024-03-20T09:19:04.485Z,16185
2024-03-20T09:20:04.461Z,16151
2024-03-20T09:21:04.460Z,16260
2024-03-20T09:22:05.548Z,16006
2024-03-20T09:23:04.472Z,17351
2024-03-20T09:24:04.452Z,16524
2024-03-20T09:25:04.460Z,16358
2024-03-20T09:26:04.467Z,16362
2024-03-20T09:27:06.578Z,16544
2024-03-20T09:28:04.460Z,16758
2024-03-20T09:29:04.466Z,16542
2024-03-20T09:30:04.487Z,16533
2024-03-20T09:31:04.504Z,18166
2024-03-20T09:32:04.453Z,17112
2024-03-20T09:33:04.473Z,17385
2024-03-20T09:34:04.514Z,17292
2024-03-20T09:35:04.484Z,17462
2024-03-20T09:36:04.469Z,18734
2024-03-20T09:37:04.572Z,17278
2024-03-20T09:38:04.571Z,18181
2024-03-20T09:39:04.525Z,18181
2024-03-20T09:40:04.452Z,17764
2024-03-20T09:41:04.467Z,17823
2024-03-20T09:42:04.487Z,17792
2024-03-20T09:43:04.472Z,17667
2024-03-20T09:44:04.454Z,17427
2024-03-20T09:45:04.466Z,17128
2024-03-20T09:46:04.466Z,17322
2024-03-20T09:47:04.473Z,17643
2024-03-20T09:48:04.449Z,17779
2024-03-20T09:49:04.462Z,17702
2024-03-20T09:50:04.450Z,17456
2024-03-20T09:51:04.469Z,17477
2024-03-20T09:52:04.493Z,17322
2024-03-20T09:53:04.474Z,17182
2024-03-20T09:54:04.478Z,16988
2024-03-20T09:55:04.461Z,17401
2024-03-20T09:56:04.467Z,17748
2024-03-20T09:57:04.470Z,17840
2024-03-20T09:58:04.458Z,18013
2024-03-20T09:59:04.460Z,18024
2024-03-20T10:00:04.457Z,17858
2024-03-20T10:01:04.473Z,17526
2024-03-20T10:02:04.454Z,17254
2024-03-20T10:03:04.457Z,17270
2024-03-20T10:04:04.447Z,17292
2024-03-20T10:05:04.459Z,17523
2024-03-20T10:06:04.466Z,17486
2024-03-20T10:07:04.461Z,17493
2024-03-20T10:08:04.465Z,17698
2024-03-20T10:09:04.527Z,17609
2024-03-20T10:10:04.453Z,17709
2024-03-20T10:11:04.459Z,17661
2024-03-20T10:12:04.451Z,17609
2024-03-20T10:13:04.466Z,17202
2024-03-20T10:14:04.459Z,16282
2024-03-20T10:15:05.971Z,16282
2024-03-20T10:16:09.312Z,16634
2024-03-20T10:17:09.809Z,16647
2024-03-20T10:18:04.455Z,16942
2024-03-20T10:19:04.450Z,16916
2024-03-20T10:20:04.452Z,17149
2024-03-20T10:21:06.065Z,17091
2024-03-20T10:22:04.462Z,17077
2024-03-20T10:23:04.485Z,16972
2024-03-20T10:24:04.456Z,16516
2024-03-20T10:25:04.456Z,16806
2024-03-20T10:26:04.463Z,16927
2024-03-20T10:27:06.742Z,17150
2024-03-20T10:28:04.448Z,17683
2024-03-20T10:29:04.458Z,17709
2024-03-20T10:30:04.869Z,18015
2024-03-20T10:31:07.584Z,17773
2024-03-20T10:32:04.455Z,17674
2024-03-20T10:33:04.462Z,17632
2024-03-20T10:34:04.466Z,17781
2024-03-20T10:35:06.596Z,17873
2024-03-20T10:36:04.484Z,17921
2024-03-20T10:37:04.467Z,18140
2024-03-20T10:38:04.499Z,18050
2024-03-20T10:39:12.285Z,18004
2024-03-20T10:40:04.458Z,17641
2024-03-20T10:41:05.437Z,17663
2024-03-20T10:42:04.460Z,17836
2024-03-20T10:43:04.456Z,18022
2024-03-20T10:44:04.467Z,18087
2024-03-20T10:45:04.454Z,18076
2024-03-20T10:46:04.460Z,18044
2024-03-20T10:47:06.677Z,17952
2024-03-20T10:48:04.459Z,17775
2024-03-20T10:49:04.460Z,17449
2024-03-20T10:50:04.450Z,17213
2024-03-20T10:51:04.454Z,17595
2024-03-20T10:52:04.460Z,17635
2024-03-20T10:53:06.646Z,17344
2024-03-20T10:54:04.460Z,17355
2024-03-20T10:55:04.456Z,17582
2024-03-20T10:56:04.459Z,17698
2024-03-20T10:57:04.487Z,17528
2024-03-20T10:58:04.473Z,17589
2024-03-20T10:59:06.138Z,17772
2024-03-20T11:00:04.442Z,17904
2024-03-20T11:01:04.456Z,17864
2024-03-20T11:02:04.467Z,17715
2024-03-20T11:03:04.487Z,17289
2024-03-20T11:04:04.470Z,17716
2024-03-20T11:05:06.180Z,17856
2024-03-20T11:06:04.481Z,18072
2024-03-20T11:07:04.465Z,18048
2024-03-20T11:08:04.471Z,18124
2024-03-20T11:09:04.458Z,18024
2024-03-20T11:10:04.463Z,17928
2024-03-20T11:11:07.189Z,17866
2024-03-20T11:12:04.461Z,17538
2024-03-20T11:13:04.460Z,17702
2024-03-20T11:14:04.464Z,16397
2024-03-20T11:15:04.463Z,16397
2024-03-20T11:16:04.444Z,16467
2024-03-20T11:17:05.733Z,17250
2024-03-20T11:18:04.464Z,16793
2024-03-20T11:19:04.455Z,16631
2024-03-20T11:20:04.464Z,15158
2024-03-20T11:21:04.475Z,15490
2024-03-20T11:22:04.461Z,15654
2024-03-20T11:23:04.469Z,14706
2024-03-20T11:24:04.453Z,15490
2024-03-20T11:25:04.457Z,16081
2024-03-20T11:26:04.465Z,16293
2024-03-20T11:27:04.479Z,15919
2024-03-20T11:28:04.484Z,16170
2024-03-20T11:29:06.094Z,16257
2024-03-20T11:30:04.462Z,16456
2024-03-20T11:31:04.457Z,16244
2024-03-20T11:32:04.469Z,15934
2024-03-20T11:33:04.459Z,15650
2024-03-20T11:34:04.472Z,15412
2024-03-20T11:35:04.454Z,15342
2024-03-20T11:36:04.462Z,15700
2024-03-20T11:37:04.465Z,15997
2024-03-20T11:38:04.490Z,16522
2024-03-20T11:39:04.455Z,16387
2024-03-20T11:40:04.450Z,15969
2024-03-20T11:41:04.463Z,14432
2024-03-20T11:42:04.474Z,14837
2024-03-20T11:43:04.454Z,14898
2024-03-20T11:44:04.457Z,15149
2024-03-20T11:45:04.468Z,15082
2024-03-20T11:46:04.460Z,15453
2024-03-20T11:47:04.484Z,15775
2024-03-20T11:48:04.452Z,15058
2024-03-20T11:49:04.461Z,14524
2024-03-20T11:50:04.445Z,13597
2024-03-20T11:51:04.461Z,13525
2024-03-20T11:52:04.464Z,13877
2024-03-20T11:53:07.161Z,14083
2024-03-20T11:54:04.467Z,14222
2024-03-20T11:55:04.453Z,13943
2024-03-20T11:56:04.482Z,13199
2024-03-20T11:57:04.465Z,12244
2024-03-20T11:58:04.462Z,12585
2024-03-20T11:59:04.460Z,13129
2024-03-20T12:00:04.455Z,13836
2024-03-20T12:01:04.465Z,13790
2024-03-20T12:02:04.451Z,13938
2024-03-20T12:03:04.460Z,13232
2024-03-20T12:04:04.456Z,14968
2024-03-20T12:05:04.451Z,16218
2024-03-20T12:06:04.460Z,16666
2024-03-20T12:07:04.461Z,16518
2024-03-20T12:08:04.480Z,16664
2024-03-20T12:09:04.455Z,16889
2024-03-20T12:10:04.477Z,16703
2024-03-20T12:11:04.461Z,16360
2024-03-20T12:12:04.453Z,16111
2024-03-20T12:13:04.457Z,15206
2024-03-20T12:14:04.462Z,15213
2024-03-20T12:15:04.460Z,15213
2024-03-20T12:16:04.457Z,13903
2024-03-20T12:17:07.155Z,13317
2024-03-20T12:18:04.472Z,13365
2024-03-20T12:19:04.470Z,13545
2024-03-20T12:20:04.461Z,13588
2024-03-20T12:21:04.468Z,13210
2024-03-20T12:22:04.471Z,12631
2024-03-20T12:23:04.472Z,11591
2024-03-20T12:24:04.462Z,10845
2024-03-20T12:25:08.576Z,9719
2024-03-20T12:26:04.477Z,9778
2024-03-20T12:27:04.469Z,10710
2024-03-20T12:28:04.462Z,10390
2024-03-20T12:29:04.466Z,10305
2024-03-20T12:30:04.459Z,9945
2024-03-20T12:31:04.471Z,9929
2024-03-20T12:32:04.454Z,9654
2024-03-20T12:33:04.465Z,9201
2024-03-20T12:34:04.461Z,10056
2024-03-20T12:35:04.467Z,9341
2024-03-20T12:36:04.458Z,11097
2024-03-20T12:37:04.470Z,13582
2024-03-20T12:38:04.487Z,12992
2024-03-20T12:39:04.478Z,13680
2024-03-20T12:40:04.459Z,14153
2024-03-20T12:41:04.453Z,15186
2024-03-20T12:42:04.467Z,14443
2024-03-20T12:43:04.450Z,14117
2024-03-20T12:44:04.488Z,15049
2024-03-20T12:45:04.469Z,11833
2024-03-20T12:46:04.453Z,10229
2024-03-20T12:47:04.454Z,9944
2024-03-20T12:48:04.456Z,10734
2024-03-20T12:49:04.478Z,9652
2024-03-20T12:50:04.456Z,9055
2024-03-20T12:51:04.447Z,8729
2024-03-20T12:52:04.469Z,13158
2024-03-20T12:53:04.471Z,13884
2024-03-20T12:54:04.460Z,13870
2024-03-20T12:55:04.466Z,13969
2024-03-20T12:56:04.449Z,12308
2024-03-20T12:57:04.461Z,8331
2024-03-20T12:58:04.463Z,7831
2024-03-20T12:59:04.456Z,7710
2024-03-20T13:00:04.467Z,8052
2024-03-20T13:01:04.447Z,8178
2024-03-20T13:02:04.465Z,8362
2024-03-20T13:03:04.463Z,10832
2024-03-20T13:04:04.463Z,12436
2024-03-20T13:05:04.465Z,12107
2024-03-20T13:06:04.465Z,11120
2024-03-20T13:07:04.464Z,12780
2024-03-20T13:08:04.466Z,13300
2024-03-20T13:09:04.480Z,11225
2024-03-20T13:10:04.460Z,13258
2024-03-20T13:11:04.460Z,13945
2024-03-20T13:12:04.470Z,12745
2024-03-20T13:13:04.464Z,13197
2024-03-20T13:14:04.457Z,13324
2024-03-20T13:15:04.459Z,13324
2024-03-20T13:16:04.450Z,13049
2024-03-20T13:17:04.677Z,13516
2024-03-20T13:18:04.480Z,13521
2024-03-20T13:19:04.460Z,13453
2024-03-20T13:20:04.454Z,13442
2024-03-20T13:21:04.462Z,13372
2024-03-20T13:22:04.469Z,13258
2024-03-20T13:23:04.461Z,13066
2024-03-20T13:24:04.476Z,12985
2024-03-20T13:25:04.455Z,12810
2024-03-20T13:26:04.486Z,12830
2024-03-20T13:27:04.464Z,12659
2024-03-20T13:28:04.463Z,12727
2024-03-20T13:29:04.461Z,12736
2024-03-20T13:30:04.452Z,12920
2024-03-20T13:31:04.464Z,12574
2024-03-20T13:32:04.468Z,12209
2024-03-20T13:33:04.456Z,13119
2024-03-20T13:34:04.451Z,12977
2024-03-20T13:35:04.463Z,13095
2024-03-20T13:36:04.460Z,12968
2024-03-20T13:37:04.462Z,13243
2024-03-20T13:38:04.474Z,13064